createdAt,value
2018-11-23T00:00:27.891Z,1.79
2018-11-23T00:02:57.591Z,1.77
2018-11-23T00:05:33.481Z,1.74
2018-11-23T00:08:02.289Z,1.75
2018-11-23T00:10:32.414Z,1.74
2018-11-23T00:13:01.410Z,1.72
2018-11-23T00:15:32.008Z,1.68
2018-11-23T00:18:01.690Z,1.68
2018-11-23T00:20:30.912Z,1.65
2018-11-23T00:22:59.737Z,1.63
2018-11-23T00:25:28.867Z,1.62
2018-11-23T00:27:58.855Z,1.60
2018-11-23T00:30:29.089Z,1.56
2018-11-23T00:32:57.994Z,1.54
2018-11-23T00:35:29.766Z,1.52
2018-11-23T00:37:59.462Z,1.52
2018-11-23T00:40:29.472Z,1.52
2018-11-23T00:42:58.631Z,1.53
2018-11-23T00:45:27.431Z,1.51
2018-11-23T00:47:57.371Z,1.51
2018-11-23T00:50:26.765Z,1.50
2018-11-23T00:52:57.709Z,1.49
2018-11-23T00:55:28.542Z,1.48
2018-11-23T00:57:57.388Z,1.46
2018-11-23T01:00:29.506Z,1.45
2018-11-23T01:02:59.045Z,1.45
2018-11-23T01:05:27.880Z,1.44
2018-11-23T01:07:56.741Z,1.44
2018-11-23T01:10:27.114Z,1.43
2018-11-23T01:12:56.722Z,1.43
2018-11-23T01:15:26.494Z,1.44
2018-11-23T01:17:55.312Z,1.44
2018-11-23T01:20:25.343Z,1.48
2018-11-23T01:22:54.835Z,1.48
2018-11-23T01:25:24.657Z,1.45
2018-11-23T01:27:54.362Z,1.43
2018-11-23T01:30:25.411Z,1.40
2018-11-23T01:32:54.452Z,1.38
2018-11-23T01:35:23.259Z,1.35
2018-11-23T01:37:53.345Z,1.33
2018-11-23T01:40:23.530Z,1.30
2018-11-23T01:42:52.898Z,1.29
2018-11-23T01:45:21.910Z,1.29
2018-11-23T01:47:50.702Z,1.28
2018-11-23T01:50:20.929Z,1.28
2018-11-23T01:52:52.570Z,1.24
2018-11-23T01:55:22.909Z,1.23
2018-11-23T01:57:51.751Z,1.23
2018-11-23T02:00:21.822Z,1.23
2018-11-23T02:02:52.392Z,1.21
2018-11-23T02:05:21.866Z,1.22
2018-11-23T02:07:50.653Z,1.17
2018-11-23T02:10:20.388Z,1.14
2018-11-23T02:12:49.193Z,1.10
2018-11-23T02:15:19.356Z,1.11
2018-11-23T02:17:48.704Z,1.11
2018-11-23T02:20:18.471Z,1.11
2018-11-23T02:22:48.969Z,1.10
2018-11-23T02:25:17.748Z,1.08
2018-11-23T02:27:46.531Z,1.08
2018-11-23T02:30:19.357Z,1.10
2018-11-23T02:32:48.797Z,1.08
2018-11-23T02:35:17.953Z,1.09
2018-11-23T02:37:46.786Z,1.07
2018-11-23T02:40:17.486Z,1.06
2018-11-23T02:42:46.715Z,1.07
2018-11-23T02:45:19.195Z,1.05
2018-11-23T02:47:48.353Z,1.04
2018-11-23T02:50:18.334Z,1.01
2018-11-23T02:52:47.670Z,1.00
2018-11-23T02:55:17.595Z,0.99
2018-11-23T02:57:46.382Z,0.98
2018-11-23T03:00:17.900Z,0.98
2018-11-23T03:02:47.210Z,0.99
2018-11-23T03:05:17.458Z,0.97
2018-11-23T03:07:46.306Z,0.97
2018-11-23T03:10:15.935Z,0.96
2018-11-23T03:12:45.552Z,0.96
2018-11-23T03:15:15.985Z,0.94
2018-11-23T03:17:45.725Z,0.91
2018-11-23T03:20:18.089Z,0.89
2018-11-23T03:22:47.930Z,0.87
2018-11-23T03:25:17.971Z,0.85
2018-11-23T03:27:46.765Z,0.85
2018-11-23T03:30:18.462Z,0.84
2018-11-23T03:32:48.181Z,0.85
2018-11-23T03:35:17.781Z,0.84
2018-11-23T03:37:46.927Z,0.83
2018-11-23T03:40:15.732Z,0.80
2018-11-23T03:42:45.703Z,0.77
2018-11-23T03:45:15.343Z,0.74
2018-11-23T03:47:44.597Z,0.72
2018-11-23T03:50:14.390Z,0.71
2018-11-23T03:52:45.207Z,0.69
2018-11-23T03:55:17.622Z,0.68
2018-11-23T03:57:46.727Z,0.67
2018-11-23T04:00:21.357Z,0.68
2018-11-23T04:02:50.727Z,0.68
2018-11-23T04:05:19.790Z,0.69
2018-11-23T04:07:51.118Z,0.70
2018-11-23T04:10:20.405Z,0.70
2018-11-23T04:12:50.468Z,0.72
2018-11-23T04:15:19.299Z,0.77
2018-11-23T04:17:49.625Z,0.79
2018-11-23T04:20:18.767Z,0.81
2018-11-23T04:22:47.593Z,0.82
2018-11-23T04:25:17.054Z,0.82
2018-11-23T04:27:46.542Z,0.80
2018-11-23T04:30:16.574Z,0.80
2018-11-23T04:32:46.215Z,0.78
2018-11-23T04:35:17.288Z,0.75
2018-11-23T04:37:47.445Z,0.72
2018-11-23T04:40:17.651Z,0.68
2018-11-23T04:42:46.514Z,0.63
2018-11-23T04:45:16.225Z,0.61
2018-11-23T04:47:46.000Z,0.61
2018-11-23T04:50:15.827Z,0.61
2018-11-23T04:52:44.994Z,0.59
2018-11-23T04:55:14.059Z,0.59
2018-11-23T04:57:44.595Z,0.59
2018-11-23T05:00:15.093Z,0.60
2018-11-23T05:02:44.569Z,0.60
2018-11-23T05:05:13.853Z,0.60
2018-11-23T05:07:45.562Z,0.60
2018-11-23T05:10:15.320Z,0.62
2018-11-23T05:12:44.159Z,0.64
2018-11-23T05:15:14.121Z,0.63
2018-11-23T05:17:43.319Z,0.65
2018-11-23T05:20:12.927Z,0.66
2018-11-23T05:22:41.901Z,0.64
2018-11-23T05:25:12.025Z,0.63
2018-11-23T05:27:40.847Z,0.63
2018-11-23T05:30:11.861Z,0.63
2018-11-23T05:32:43.902Z,0.63
2018-11-23T05:35:13.963Z,0.64
2018-11-23T05:37:42.888Z,0.66
2018-11-23T05:40:14.393Z,0.64
2018-11-23T05:42:43.461Z,0.61
2018-11-23T05:45:14.428Z,0.57
2018-11-23T05:47:43.323Z,0.55
2018-11-23T05:50:30.158Z,0.51
2018-11-23T05:52:58.961Z,0.53
2018-11-23T05:55:29.953Z,0.53
2018-11-23T05:57:58.758Z,0.51
2018-11-23T06:00:29.164Z,0.53
2018-11-23T06:02:57.983Z,0.57
2018-11-23T06:05:26.785Z,0.64
2018-11-23T06:07:57.486Z,0.70
2018-11-23T06:10:26.329Z,0.75
2018-11-23T06:12:55.144Z,0.77
2018-11-23T06:15:25.478Z,0.82
2018-11-23T06:17:55.301Z,0.89
2018-11-23T06:20:25.396Z,0.92
2018-11-23T06:22:54.902Z,0.95
2018-11-23T06:25:28.894Z,1.02
2018-11-23T06:27:58.415Z,1.08
2018-11-23T06:30:29.886Z,1.11
2018-11-23T06:33:10.499Z,1.11
2018-11-23T06:35:40.041Z,1.08
2018-11-23T06:38:08.912Z,1.10
2018-11-23T06:40:37.743Z,1.16
2018-11-23T06:43:06.747Z,1.23
2018-11-23T06:45:38.604Z,1.25
2018-11-23T06:48:08.067Z,1.25
2018-11-23T06:50:36.927Z,1.28
2018-11-23T06:53:08.111Z,1.32
2018-11-23T06:55:38.929Z,1.38
2018-11-23T06:58:07.782Z,1.43
2018-11-23T07:00:36.625Z,1.43
2018-11-23T07:03:06.091Z,1.42
2018-11-23T07:05:35.574Z,1.40
2018-11-23T07:08:05.354Z,1.38
2018-11-23T07:10:34.159Z,1.39
2018-11-23T07:13:03.018Z,1.37
2018-11-23T07:15:38.946Z,1.39
2018-11-23T07:18:09.006Z,1.43
2018-11-23T07:20:38.259Z,1.47
2018-11-23T07:23:07.211Z,1.54
2018-11-23T07:25:36.707Z,1.58
2018-11-23T07:28:05.595Z,1.63
2018-11-23T07:30:35.220Z,1.69
2018-11-23T07:33:04.587Z,1.73
2018-11-23T07:35:33.375Z,1.77
2018-11-23T07:38:02.206Z,1.77
2018-11-23T07:40:44.286Z,1.77
2018-11-23T07:43:13.073Z,1.73
2018-11-23T07:45:41.906Z,1.72
2018-11-23T07:48:14.765Z,1.76
2018-11-23T07:50:45.142Z,1.85
2018-11-23T07:53:15.715Z,2.00
2018-11-23T07:55:45.572Z,2.01
2018-11-23T07:58:14.381Z,2.04
2018-11-23T08:00:43.254Z,2.17
2018-11-23T08:03:12.066Z,2.34
2018-11-23T08:05:40.958Z,2.41
2018-11-23T08:08:10.330Z,2.25
2018-11-23T08:10:39.844Z,2.14
2018-11-23T08:13:08.722Z,2.18
2018-11-23T08:15:37.557Z,2.21
2018-11-23T08:18:06.374Z,2.18
2018-11-23T08:20:35.186Z,2.17
2018-11-23T08:23:03.996Z,2.26
2018-11-23T08:25:33.855Z,2.35
2018-11-23T08:28:02.711Z,2.42
2018-11-23T08:30:31.585Z,2.44
2018-11-23T08:33:00.374Z,2.49
2018-11-23T08:35:29.247Z,2.56
2018-11-23T08:37:58.067Z,2.62
2018-11-23T08:40:28.161Z,2.75
2018-11-23T08:42:57.378Z,2.86
2018-11-23T08:45:27.247Z,3.01
2018-11-23T08:47:56.062Z,3.24
2018-11-23T08:50:27.356Z,3.47
2018-11-23T08:52:56.159Z,3.58
2018-11-23T08:55:26.188Z,3.50
2018-11-23T08:57:55.273Z,3.40
2018-11-23T09:00:26.439Z,3.31
2018-11-23T09:02:56.899Z,3.26
2018-11-23T09:05:28.143Z,3.25
2018-11-23T09:07:57.473Z,3.19
2018-11-23T09:10:27.929Z,3.18
2018-11-23T09:13:01.217Z,3.17
2018-11-23T09:15:31.188Z,3.11
2018-11-23T09:17:59.994Z,3.14
2018-11-23T09:20:28.832Z,3.15
2018-11-23T09:22:58.692Z,3.20
2018-11-23T09:25:31.131Z,3.20
2018-11-23T09:27:59.925Z,3.24
2018-11-23T09:30:28.786Z,3.31
2018-11-23T09:32:58.131Z,3.33
2018-11-23T09:35:27.765Z,3.29
2018-11-23T09:37:56.592Z,3.35
2018-11-23T09:40:26.734Z,3.45
2018-11-23T09:42:56.319Z,3.61
2018-11-23T09:45:26.563Z,3.64
2018-11-23T09:47:57.365Z,3.72
2018-11-23T09:50:26.814Z,3.78
2018-11-23T09:52:56.713Z,3.80
2018-11-23T09:55:26.327Z,3.90
2018-11-23T09:57:55.902Z,3.90
2018-11-23T10:00:27.293Z,3.99
2018-11-23T10:02:56.878Z,4.16
2018-11-23T10:05:26.398Z,4.37
2018-11-23T10:07:56.802Z,4.91
2018-11-23T10:10:26.213Z,5.26
2018-11-23T10:12:55.068Z,5.43
2018-11-23T10:15:25.790Z,5.44
2018-11-23T10:17:54.712Z,5.30
2018-11-23T10:20:24.945Z,5.16
2018-11-23T10:22:54.058Z,4.94
2018-11-23T10:25:24.263Z,4.89
2018-11-23T10:27:54.114Z,4.99
2018-11-23T10:30:28.186Z,5.12
2018-11-23T10:32:58.427Z,5.21
2018-11-23T10:35:28.239Z,5.22
2018-11-23T10:37:59.202Z,5.40
2018-11-23T10:40:29.798Z,5.45
2018-11-23T10:42:58.599Z,5.51
2018-11-23T10:45:29.001Z,5.54
2018-11-23T10:47:59.636Z,5.80
2018-11-23T10:50:30.022Z,6.15
2018-11-23T10:52:58.882Z,6.60
2018-11-23T10:55:29.935Z,6.98
2018-11-23T10:57:59.509Z,7.26
2018-11-23T11:00:33.736Z,7.62
2018-11-23T11:03:07.729Z,7.84
2018-11-23T11:06:40.704Z,7.86
2018-11-23T11:09:10.741Z,8.15
2018-11-23T11:11:39.859Z,8.41
2018-11-23T11:14:10.997Z,8.24
2018-11-23T11:16:39.951Z,8.05
2018-11-23T11:19:08.843Z,8.28
2018-11-23T11:21:37.726Z,8.16
2018-11-23T11:24:06.588Z,8.14
2018-11-23T11:26:35.397Z,7.92
2018-11-23T11:29:04.319Z,8.04
2018-11-23T11:31:33.165Z,7.94
2018-11-23T11:34:01.986Z,7.93
2018-11-23T11:36:31.690Z,7.87
2018-11-23T11:39:00.491Z,7.58
2018-11-23T11:41:30.847Z,7.31
2018-11-23T11:43:59.945Z,7.29
2018-11-23T11:46:31.837Z,7.36
2018-11-23T11:49:02.563Z,7.52
2018-11-23T11:51:32.382Z,7.65
2018-11-23T11:54:01.257Z,8.04
2018-11-23T11:56:30.137Z,8.41
2018-11-23T11:58:59.010Z,8.73
2018-11-23T12:01:28.090Z,9.13
2018-11-23T12:03:57.666Z,9.21
2018-11-23T12:06:27.191Z,9.08
2018-11-23T12:08:58.537Z,9.20
2018-11-23T12:11:28.367Z,9.14
2018-11-23T12:13:57.885Z,8.88
2018-11-23T12:16:27.774Z,8.45
2018-11-23T12:18:58.016Z,8.17
2018-11-23T12:21:27.377Z,8.26
2018-11-23T12:23:56.238Z,8.62
2018-11-23T12:26:25.096Z,8.98
2018-11-23T12:28:54.661Z,9.07
2018-11-23T12:31:23.920Z,8.77
2018-11-23T12:33:52.882Z,8.35
2018-11-23T12:36:23.574Z,8.19
2018-11-23T12:46:07.572Z,7.62
2018-11-23T12:48:36.645Z,7.62
2018-11-23T12:51:06.114Z,7.67
2018-11-23T12:53:34.970Z,7.83
2018-11-23T12:56:03.814Z,7.98
2018-11-23T12:58:32.723Z,8.07
2018-11-23T13:01:01.598Z,8.09
2018-11-23T13:03:31.924Z,8.00
2018-11-23T13:06:02.708Z,8.04
2018-11-23T13:11:07.840Z,8.17
2018-11-23T13:13:36.708Z,8.17
2018-11-23T13:16:05.563Z,8.06
2018-11-23T13:18:34.466Z,8.12
2018-11-23T13:21:22.316Z,8.15
2018-11-23T13:24:07.661Z,8.19
2018-11-23T13:26:43.424Z,8.36
2018-11-23T13:29:16.476Z,8.54
2018-11-23T13:31:54.058Z,8.59
2018-11-23T13:34:24.265Z,8.63
2018-11-23T13:36:53.870Z,8.58
2018-11-23T13:39:23.027Z,8.63
2018-11-23T13:41:52.775Z,8.39
2018-11-23T13:44:21.631Z,8.22
2018-11-23T13:49:40.331Z,8.00
2018-11-23T13:52:10.449Z,7.91
2018-11-23T13:54:39.523Z,7.89
2018-11-23T13:57:08.351Z,7.85
2018-11-23T13:59:37.181Z,7.90
2018-11-23T14:02:06.440Z,7.95
2018-11-23T14:04:35.269Z,7.99
2018-11-23T14:07:04.103Z,7.95
2018-11-23T14:09:33.950Z,7.93
2018-11-23T14:12:02.807Z,7.98
2018-11-23T14:14:32.802Z,8.04
2018-11-23T14:17:02.377Z,8.06
2018-11-23T14:19:31.238Z,7.98
2018-11-23T14:22:02.267Z,7.89
2018-11-23T14:24:31.834Z,7.80
2018-11-23T14:27:00.673Z,7.72
2018-11-23T14:29:30.358Z,7.68
2018-11-23T14:31:59.208Z,7.71
2018-11-23T14:34:28.726Z,7.71
2018-11-23T14:36:59.084Z,7.71
2018-11-23T14:39:29.136Z,7.71
2018-11-23T14:41:59.111Z,7.67
2018-11-23T14:44:28.498Z,7.68
2018-11-23T14:46:59.275Z,7.69
2018-11-23T14:49:29.888Z,7.66
2018-11-23T14:51:59.257Z,7.61
2018-11-23T14:54:28.755Z,7.60
2018-11-23T14:56:57.679Z,7.55
2018-11-23T14:59:26.563Z,7.49
2018-11-23T15:01:56.819Z,7.52
2018-11-23T15:04:26.646Z,7.50
2018-11-23T15:06:55.603Z,7.48
2018-11-23T15:09:26.758Z,7.44
2018-11-23T15:11:57.327Z,7.40
2018-11-23T15:14:26.172Z,7.33
2018-11-23T15:16:54.992Z,7.26
2018-11-23T15:19:24.696Z,7.15
2018-11-23T15:21:55.244Z,7.08
2018-11-23T15:24:24.053Z,7.02
2018-11-23T15:26:53.221Z,6.92
2018-11-23T15:29:22.054Z,6.86
2018-11-23T15:31:50.871Z,6.82
2018-11-23T15:34:20.799Z,6.76
2018-11-23T15:36:49.687Z,6.71
2018-11-23T15:39:18.505Z,6.64
2018-11-23T15:41:47.316Z,6.63
2018-11-23T15:44:16.139Z,6.57
2018-11-23T15:46:45.054Z,6.54
2018-11-23T15:49:13.876Z,6.52
2018-11-23T15:51:43.388Z,6.46
2018-11-23T15:54:12.574Z,6.44
2018-11-23T15:56:41.474Z,6.38
2018-11-23T15:59:10.316Z,6.34
2018-11-23T16:01:39.875Z,6.31
2018-11-23T16:04:08.688Z,6.26
2018-11-23T16:06:37.561Z,6.25
2018-11-23T16:09:09.827Z,6.22
2018-11-23T16:11:39.324Z,6.20
2018-11-23T16:14:09.428Z,6.18
2018-11-23T16:16:40.110Z,6.14
2018-11-23T16:19:13.207Z,6.11
2018-11-23T16:21:49.487Z,6.09
2018-11-23T16:24:19.955Z,6.08
2018-11-23T16:29:35.399Z,6.10
2018-11-23T16:32:05.511Z,6.09
2018-11-23T16:34:35.198Z,6.11
2018-11-23T16:37:15.529Z,6.13
2018-11-23T16:39:47.554Z,6.15
2018-11-23T16:42:17.023Z,6.15
2018-11-23T16:44:49.406Z,6.19
2018-11-23T16:47:21.071Z,6.21
2018-11-23T16:49:50.006Z,6.21
2018-11-23T16:52:18.897Z,6.23
2018-11-23T16:54:48.090Z,6.23
2018-11-23T16:57:18.511Z,6.21
2018-11-23T16:59:47.676Z,6.21
2018-11-23T17:02:16.560Z,6.23
2018-11-23T17:04:45.420Z,6.25
2018-11-23T17:07:14.248Z,6.25
2018-11-23T17:09:44.150Z,6.24
2018-11-23T17:12:12.033Z,6.21
2018-11-23T17:14:40.912Z,6.19
2018-11-23T17:17:10.409Z,6.14
2018-11-23T17:19:40.220Z,6.11
2018-11-23T17:22:11.091Z,6.07
2018-11-23T17:24:39.904Z,6.02
2018-11-23T17:27:09.275Z,5.97
2018-11-23T17:29:38.098Z,5.93
2018-11-23T17:32:07.027Z,5.88
2018-11-23T17:34:35.874Z,5.82
2018-11-23T17:37:04.735Z,5.77
2018-11-23T17:39:33.561Z,5.76
2018-11-23T17:42:02.366Z,5.71
2018-11-23T17:44:31.201Z,5.67
2018-11-23T17:46:59.997Z,5.65
2018-11-23T17:49:28.822Z,5.63
2018-11-23T17:51:57.653Z,5.58
2018-11-23T17:54:27.605Z,5.58
2018-11-23T17:56:56.418Z,5.53
2018-11-23T17:59:25.229Z,5.50
2018-11-23T18:01:55.295Z,5.48
2018-11-23T18:04:24.565Z,5.44
2018-11-23T18:06:53.359Z,5.41
2018-11-23T18:09:22.202Z,5.37
2018-11-23T18:11:51.636Z,5.35
2018-11-23T18:14:20.450Z,5.31
2018-11-23T18:16:49.281Z,5.29
2018-11-23T18:19:18.805Z,5.25
2018-11-23T18:21:47.644Z,5.24
2018-11-23T18:24:16.700Z,5.20
2018-11-23T18:26:50.067Z,5.17
2018-11-23T18:29:18.843Z,5.17
2018-11-23T18:31:48.903Z,5.14
2018-11-23T18:34:17.760Z,5.10
2018-11-23T18:36:46.595Z,5.08
2018-11-23T18:39:16.300Z,5.05
2018-11-23T18:41:45.690Z,5.04
2018-11-23T18:44:14.606Z,5.02
2018-11-23T18:46:43.585Z,4.98
2018-11-23T18:49:12.411Z,4.93
2018-11-23T18:51:41.247Z,4.91
2018-11-23T18:54:16.688Z,4.90
2018-11-23T18:56:45.496Z,4.87
2018-11-23T18:59:14.327Z,4.86
2018-11-23T19:01:43.316Z,4.86
2018-11-23T19:04:13.353Z,4.83
2018-11-23T19:06:42.208Z,4.80
2018-11-23T19:09:11.735Z,4.81
2018-11-23T19:12:10.673Z,4.76
2018-11-23T19:14:40.454Z,4.74
2018-11-23T19:17:10.056Z,4.71
2018-11-23T19:19:38.881Z,4.72
2018-11-23T19:22:07.687Z,4.70
2018-11-23T19:24:36.495Z,4.68
2018-11-23T19:27:05.552Z,4.66
2018-11-23T19:29:34.364Z,4.65
2018-11-23T19:32:03.163Z,4.63
2018-11-23T19:34:32.039Z,4.61
2018-11-23T19:37:00.862Z,4.60
2018-11-23T19:39:29.687Z,4.58
2018-11-23T19:41:58.584Z,4.55
2018-11-23T19:44:27.430Z,4.55
2018-11-23T19:46:56.299Z,4.51
2018-11-23T19:49:25.114Z,4.52
2018-11-23T19:51:54.298Z,4.50
2018-11-23T19:54:23.126Z,4.50
2018-11-23T19:56:52.231Z,4.47
2018-11-23T19:59:21.042Z,4.45
2018-11-23T20:01:49.882Z,4.43
2018-11-23T20:04:18.703Z,4.41
2018-11-23T20:06:47.585Z,4.40
2018-11-23T20:09:16.362Z,4.38
2018-11-23T20:11:45.293Z,4.36
2018-11-23T20:14:14.124Z,4.36
2018-11-23T20:16:43.268Z,4.34
2018-11-23T20:19:12.093Z,4.37
2018-11-23T20:21:40.902Z,4.36
2018-11-23T20:24:11.234Z,4.33
2018-11-23T20:26:40.055Z,4.31
2018-11-23T20:29:08.881Z,4.30
2018-11-23T20:31:39.487Z,4.32
2018-11-23T20:34:08.308Z,4.29
2018-11-23T20:36:37.189Z,4.29
2018-11-23T20:39:08.839Z,4.27
2018-11-23T20:41:38.672Z,4.28
2018-11-23T20:44:08.111Z,4.29
2018-11-23T20:46:36.971Z,4.28
2018-11-23T20:49:05.803Z,4.26
2018-11-23T20:51:34.617Z,4.25
2018-11-23T20:54:03.467Z,4.27
2018-11-23T20:56:32.352Z,4.25
2018-11-23T20:59:01.430Z,4.26
2018-11-23T21:01:31.369Z,4.23
2018-11-23T21:04:00.194Z,4.23
2018-11-23T21:06:29.024Z,4.22
2018-11-23T21:08:57.850Z,4.22
2018-11-23T21:11:26.671Z,4.22
2018-11-23T21:13:55.481Z,4.21
2018-11-23T21:16:24.274Z,4.19
2018-11-23T21:18:53.113Z,4.17
2018-11-23T21:21:21.932Z,4.17
2018-11-23T21:23:50.761Z,4.18
2018-11-23T21:26:19.595Z,4.16
2018-11-23T21:28:48.401Z,4.14
2018-11-23T21:31:17.270Z,4.13
2018-11-23T21:33:46.117Z,4.10
2018-11-23T21:36:15.891Z,4.08
2018-11-23T21:38:44.769Z,4.04
2018-11-23T21:41:13.602Z,4.00
2018-11-23T21:43:42.411Z,4.00
2018-11-23T21:46:11.229Z,3.96
2018-11-23T21:48:40.063Z,3.95
2018-11-23T21:51:08.897Z,3.91
2018-11-23T21:53:37.706Z,3.89
2018-11-23T21:56:09.444Z,3.87
2018-11-23T21:58:35.512Z,3.86
2018-11-23T22:01:04.387Z,3.84
2018-11-23T22:03:33.292Z,3.79
2018-11-23T22:06:02.135Z,3.76
2018-11-23T22:08:31.603Z,3.74
2018-11-23T22:11:00.455Z,3.73
2018-11-23T22:13:29.367Z,3.70
2018-11-23T22:15:58.192Z,3.66
2018-11-23T22:18:27.082Z,3.64
2018-11-23T22:20:55.936Z,3.62
2018-11-23T22:23:24.798Z,3.56
2018-11-23T22:25:53.638Z,3.56
2018-11-23T22:28:22.469Z,3.52
2018-11-23T22:30:51.298Z,3.49
2018-11-23T22:33:20.121Z,3.47
2018-11-23T22:35:48.958Z,3.42
2018-11-23T22:38:17.785Z,3.41
2018-11-23T22:40:46.631Z,3.38
2018-11-23T22:43:15.467Z,3.36
2018-11-23T22:45:44.422Z,3.33
2018-11-23T22:48:13.235Z,3.28
2018-11-23T22:50:42.105Z,3.26
2018-11-23T22:53:11.000Z,3.28
2018-11-23T22:55:40.512Z,3.25
2018-11-23T22:58:10.239Z,3.22
2018-11-23T23:00:45.152Z,3.20
2018-11-23T23:03:18.942Z,3.19
2018-11-23T23:05:47.858Z,3.17
2018-11-23T23:08:16.687Z,3.17
2018-11-23T23:10:46.467Z,3.14
2018-11-23T23:13:15.342Z,3.15
2018-11-23T23:15:45.341Z,3.10
2018-11-23T23:18:14.313Z,3.11
2018-11-23T23:20:43.302Z,3.09
2018-11-23T23:23:12.210Z,3.06
2018-11-23T23:25:41.675Z,3.00
2018-11-23T23:28:12.454Z,2.96
2018-11-23T23:30:41.302Z,2.94
2018-11-23T23:33:10.196Z,2.92
2018-11-23T23:35:39.073Z,2.89
2018-11-23T23:38:08.885Z,2.88
2018-11-23T23:40:37.951Z,2.86
2018-11-23T23:43:07.464Z,2.84
2018-11-23T23:45:38.179Z,2.84
2018-11-23T23:48:08.215Z,2.82
2018-11-23T23:50:37.114Z,2.77
2018-11-23T23:53:05.938Z,2.76
2018-11-23T23:55:35.370Z,2.77
2018-11-23T23:58:04.828Z,2.75
